createdAt,value
2022-11-06T00:00:42.592Z,13.84
2022-11-06T00:03:11.678Z,13.83
2022-11-06T00:05:59.949Z,13.79
2022-11-06T00:08:33.853Z,13.83
2022-11-06T00:11:02.412Z,14.04
2022-11-06T00:13:32.353Z,13.93
2022-11-06T00:16:04.915Z,13.98
2022-11-06T00:18:33.634Z,13.82
2022-11-06T00:21:09.493Z,13.71
2022-11-06T00:23:38.068Z,13.69
2022-11-06T00:26:12.110Z,13.64
2022-11-06T00:28:41.989Z,13.57
2022-11-06T00:31:13.399Z,13.83
2022-11-06T00:33:43.284Z,13.84
2022-11-06T00:36:13.817Z,13.87
2022-11-06T00:38:42.658Z,13.69
2022-11-06T00:41:12.619Z,13.90
2022-11-06T00:43:42.784Z,13.75
2022-11-06T00:46:13.448Z,13.61
2022-11-06T00:48:43.626Z,13.39
2022-11-06T00:51:14.070Z,13.32
2022-11-06T00:53:42.927Z,13.51
2022-11-06T00:56:13.042Z,13.51
2022-11-06T00:58:43.529Z,13.38
2022-11-06T01:01:15.631Z,13.21
2022-11-06T01:03:45.632Z,13.25
2022-11-06T01:06:19.574Z,13.34
2022-11-06T01:08:49.172Z,13.37
2022-11-06T01:11:20.758Z,13.08
2022-11-06T01:13:52.352Z,13.20
2022-11-06T01:16:21.387Z,13.17
2022-11-06T01:18:51.053Z,13.06
2022-11-06T01:21:21.196Z,12.95
2022-11-06T01:23:54.782Z,12.71
2022-11-06T01:26:37.158Z,12.78
2022-11-06T01:29:10.517Z,12.74
2022-11-06T01:31:38.731Z,12.69
2022-11-06T01:34:07.147Z,12.90
2022-11-06T01:36:35.390Z,12.97
2022-11-06T01:39:06.160Z,12.94
2022-11-06T01:41:36.628Z,13.08
2022-11-06T01:44:28.494Z,12.85
2022-11-06T01:46:57.034Z,12.74
2022-11-06T01:49:25.353Z,12.90
2022-11-06T01:51:56.753Z,12.95
2022-11-06T01:54:28.168Z,13.08
2022-11-06T01:56:59.953Z,13.10
2022-11-06T01:59:37.442Z,13.02
2022-11-06T02:02:06.280Z,12.92
2022-11-06T02:04:38.821Z,12.94
2022-11-06T02:07:08.198Z,12.89
2022-11-06T02:09:38.964Z,12.81
2022-11-06T02:12:18.971Z,12.71
2022-11-06T02:15:02.157Z,12.69
2022-11-06T02:17:45.208Z,12.87
2022-11-06T02:20:24.476Z,13.01
2022-11-06T02:23:07.766Z,13.37
2022-11-06T02:25:47.547Z,13.44
2022-11-06T02:28:24.427Z,13.71
2022-11-06T02:30:54.647Z,13.89
2022-11-06T02:33:29.874Z,13.90
2022-11-06T02:36:02.407Z,14.14
2022-11-06T02:38:36.102Z,14.21
2022-11-06T02:41:10.319Z,14.15
2022-11-06T02:43:43.086Z,14.10
2022-11-06T02:46:16.823Z,14.04
2022-11-06T02:48:49.981Z,13.96
2022-11-06T02:51:23.888Z,13.92
2022-11-06T02:53:55.189Z,13.93
2022-11-06T02:56:27.174Z,13.94
2022-11-06T02:59:01.002Z,13.68
2022-11-06T03:01:34.162Z,13.83
2022-11-06T03:04:07.339Z,13.87
2022-11-06T03:06:39.878Z,13.80
2022-11-06T03:09:11.625Z,13.95
2022-11-06T03:11:40.296Z,13.78
2022-11-06T03:14:15.653Z,14.25
2022-11-06T03:16:54.220Z,14.00
2022-11-06T03:19:29.723Z,13.81
2022-11-06T03:22:12.271Z,13.65
2022-11-06T03:24:47.452Z,13.70
2022-11-06T03:27:21.970Z,13.31
2022-11-06T03:29:57.588Z,13.40
2022-11-06T03:32:31.687Z,12.76
2022-11-06T03:35:06.212Z,13.13
2022-11-06T03:37:38.223Z,13.13
2022-11-06T03:40:10.980Z,13.22
2022-11-06T03:42:41.961Z,13.23
2022-11-06T03:45:17.182Z,13.34
2022-11-06T03:47:49.877Z,13.36
2022-11-06T03:50:25.975Z,13.28
2022-11-06T03:53:00.553Z,13.26
2022-11-06T03:55:33.893Z,12.87
2022-11-06T03:58:08.074Z,12.97
2022-11-06T04:00:40.354Z,12.84
2022-11-06T04:03:15.770Z,12.58
2022-11-06T04:05:48.945Z,12.95
2022-11-06T04:08:40.409Z,12.90
2022-11-06T04:11:29.228Z,12.93
2022-11-06T04:14:02.213Z,12.87
2022-11-06T04:16:36.064Z,12.92
2022-11-06T04:19:04.827Z,12.98
2022-11-06T04:21:44.916Z,12.85
2022-11-06T04:24:41.267Z,13.01
2022-11-06T04:27:27.972Z,12.90
2022-11-06T04:30:05.604Z,12.66
2022-11-06T04:32:52.446Z,13.13
2022-11-06T04:35:30.541Z,12.98
2022-11-06T04:38:04.256Z,12.59
2022-11-06T04:40:44.519Z,12.65
2022-11-06T04:43:17.882Z,12.70
2022-11-06T04:45:51.255Z,12.56
2022-11-06T04:48:22.504Z,12.81
2022-11-06T04:50:54.843Z,12.84
2022-11-06T04:53:24.991Z,12.52
2022-11-06T04:55:57.292Z,12.90
2022-11-06T04:58:25.371Z,12.97
2022-11-06T05:00:53.850Z,12.94
2022-11-06T05:03:23.807Z,12.96
2022-11-06T05:05:52.300Z,13.01
2022-11-06T05:08:22.562Z,13.07
2022-11-06T05:10:51.132Z,13.11
2022-11-06T05:13:19.760Z,13.01
2022-11-06T05:15:47.876Z,12.95
2022-11-06T05:18:16.562Z,12.98
2022-11-06T05:20:48.468Z,12.94
2022-11-06T05:23:15.784Z,12.99
2022-11-06T05:25:44.493Z,13.10
2022-11-06T05:28:13.909Z,13.14
2022-11-06T05:30:42.285Z,13.11
2022-11-06T05:33:10.339Z,13.10
2022-11-06T05:35:39.957Z,13.05
2022-11-06T05:38:10.688Z,12.96
2022-11-06T05:40:39.538Z,12.27
2022-11-06T05:43:09.059Z,12.70
2022-11-06T05:45:38.324Z,12.87
2022-11-06T05:48:06.843Z,12.85
2022-11-06T05:50:35.708Z,12.89
2022-11-06T05:53:04.180Z,12.86
2022-11-06T05:55:33.863Z,12.29
2022-11-06T05:58:01.840Z,12.52
2022-11-06T06:00:30.137Z,12.90
2022-11-06T06:02:58.983Z,12.94
2022-11-06T06:05:27.181Z,13.10
2022-11-06T06:07:57.513Z,12.99
2022-11-06T06:10:26.400Z,12.99
2022-11-06T06:12:56.004Z,12.79
2022-11-06T06:15:24.074Z,13.04
2022-11-06T06:17:52.126Z,12.98
2022-11-06T06:20:21.185Z,13.09
2022-11-06T06:22:55.578Z,13.14
2022-11-06T06:25:24.192Z,13.19
2022-11-06T06:27:53.277Z,13.20
2022-11-06T06:30:23.639Z,13.19
2022-11-06T06:32:52.355Z,13.34
2022-11-06T06:35:21.047Z,13.36
2022-11-06T06:37:53.718Z,13.50
2022-11-06T06:40:23.307Z,13.45
2022-11-06T06:42:51.922Z,13.47
2022-11-06T06:45:19.995Z,13.58
2022-11-06T06:47:49.356Z,13.60
2022-11-06T06:50:17.702Z,13.66
2022-11-06T06:52:45.994Z,13.71
2022-11-06T06:55:14.544Z,13.78
2022-11-06T06:57:43.378Z,13.46
2022-11-06T07:00:12.778Z,13.81
2022-11-06T07:02:41.717Z,13.82
2022-11-06T07:05:11.215Z,13.97
2022-11-06T07:07:40.715Z,13.99
2022-11-06T07:10:11.083Z,14.10
2022-11-06T07:12:39.221Z,13.88
2022-11-06T07:15:08.838Z,14.18
2022-11-06T07:17:37.385Z,14.22
2022-11-06T07:20:06.777Z,14.16
2022-11-06T07:22:37.863Z,14.32
2022-11-06T07:25:07.198Z,14.37
2022-11-06T07:27:36.693Z,14.37
2022-11-06T07:30:05.548Z,14.37
2022-11-06T07:32:34.750Z,14.41
2022-11-06T07:35:03.559Z,14.53
2022-11-06T07:37:31.480Z,14.52
2022-11-06T07:40:01.046Z,14.66
2022-11-06T07:42:30.305Z,14.75
2022-11-06T07:44:58.414Z,14.65
2022-11-06T07:47:28.639Z,14.60
2022-11-06T07:49:56.820Z,14.71
2022-11-06T07:52:25.139Z,14.73
2022-11-06T07:54:54.360Z,14.74
2022-11-06T07:57:24.073Z,14.77
2022-11-06T07:59:53.391Z,14.85
2022-11-06T08:02:21.599Z,14.77
2022-11-06T08:04:51.254Z,14.74
2022-11-06T08:07:19.908Z,14.77
2022-11-06T08:09:48.336Z,14.64
2022-11-06T08:12:16.972Z,14.54
2022-11-06T08:14:47.256Z,14.53
2022-11-06T08:17:15.489Z,14.38
2022-11-06T08:19:45.466Z,14.48
2022-11-06T08:22:13.767Z,14.54
2022-11-06T08:24:41.861Z,14.03
2022-11-06T08:27:10.004Z,14.37
2022-11-06T08:29:41.403Z,14.20
2022-11-06T08:32:11.287Z,14.01
2022-11-06T08:34:39.489Z,13.88
2022-11-06T08:37:07.443Z,13.73
2022-11-06T08:39:35.653Z,13.66
2022-11-06T08:42:05.820Z,13.65
2022-11-06T08:44:33.883Z,13.80
2022-11-06T08:47:01.993Z,13.91
2022-11-06T08:49:31.803Z,13.80
2022-11-06T08:52:00.348Z,13.92
2022-11-06T08:54:29.709Z,14.08
2022-11-06T08:57:01.827Z,13.89
2022-11-06T08:59:30.479Z,14.17
2022-11-06T09:02:00.448Z,14.44
2022-11-06T09:04:29.245Z,14.28
2022-11-06T09:07:00.236Z,14.17
2022-11-06T09:09:32.174Z,14.05
2022-11-06T09:12:02.201Z,13.80
2022-11-06T09:14:30.477Z,13.94
2022-11-06T09:17:03.747Z,13.84
2022-11-06T09:19:31.803Z,13.76
2022-11-06T09:22:01.321Z,13.56
2022-11-06T09:24:57.214Z,13.63
2022-11-06T09:27:22.475Z,13.73
2022-11-06T09:29:51.547Z,13.34
2022-11-06T09:32:22.639Z,13.73
2022-11-06T09:34:52.255Z,13.77
2022-11-06T09:37:21.529Z,13.65
2022-11-06T09:39:51.820Z,13.67
2022-11-06T09:42:33.681Z,13.53
2022-11-06T09:45:15.317Z,13.63
2022-11-06T09:47:51.326Z,12.87
2022-11-06T09:50:25.548Z,13.70
2022-11-06T09:53:05.697Z,13.78
2022-11-06T09:55:39.678Z,13.46
2022-11-06T09:58:15.139Z,13.82
2022-11-06T10:00:46.353Z,13.30
2022-11-06T10:03:21.052Z,13.84
2022-11-06T10:05:50.197Z,13.88
2022-11-06T10:08:27.218Z,13.92
2022-11-06T10:11:07.284Z,13.98
2022-11-06T10:13:52.545Z,13.81
2022-11-06T10:16:33.648Z,13.93
2022-11-06T10:19:12.136Z,13.84
2022-11-06T10:21:48.726Z,13.69
2022-11-06T10:24:34.996Z,13.05
2022-11-06T10:27:10.606Z,13.69
2022-11-06T10:30:04.828Z,13.58
2022-11-06T10:32:59.735Z,13.57
2022-11-06T10:35:32.801Z,13.52
2022-11-06T10:38:08.174Z,13.58
2022-11-06T10:40:41.921Z,13.53
2022-11-06T10:43:24.037Z,13.43
2022-11-06T10:45:57.014Z,13.57
2022-11-06T10:48:31.781Z,13.61
2022-11-06T10:51:21.429Z,13.62
2022-11-06T10:53:59.508Z,13.59
2022-11-06T10:56:41.427Z,13.56
2022-11-06T10:59:10.606Z,13.40
2022-11-06T11:01:40.309Z,13.42
2022-11-06T11:04:08.393Z,13.38
2022-11-06T11:06:36.812Z,13.37
2022-11-06T11:09:29.336Z,13.15
2022-11-06T11:12:00.506Z,13.23
2022-11-06T11:14:30.455Z,13.33
2022-11-06T11:17:02.362Z,13.21
2022-11-06T11:19:41.735Z,13.28
2022-11-06T11:22:20.504Z,13.21
2022-11-06T11:25:01.811Z,13.22
2022-11-06T11:27:33.849Z,13.28
2022-11-06T11:30:05.484Z,13.31
2022-11-06T11:32:34.208Z,13.38
2022-11-06T11:35:13.203Z,13.35
2022-11-06T11:37:41.824Z,13.27
2022-11-06T11:40:36.715Z,13.36
2022-11-06T11:43:24.910Z,13.40
2022-11-06T11:46:21.630Z,13.32
2022-11-06T11:48:54.007Z,13.36
2022-11-06T11:51:31.185Z,13.33
2022-11-06T11:54:10.061Z,13.33
2022-11-06T11:57:05.871Z,13.35
2022-11-06T11:59:43.092Z,13.37
2022-11-06T12:02:23.609Z,13.28
2022-11-06T12:05:00.191Z,13.41
2022-11-06T12:07:33.339Z,13.42
2022-11-06T12:10:05.124Z,13.41
2022-11-06T12:12:35.702Z,13.50
2022-11-06T12:15:21.640Z,13.58
2022-11-06T12:17:56.331Z,13.41
2022-11-06T12:20:29.071Z,13.75
2022-11-06T12:23:00.433Z,13.84
2022-11-06T12:25:36.100Z,13.83
2022-11-06T12:28:13.376Z,13.82
2022-11-06T12:30:47.521Z,13.83
2022-11-06T12:33:19.281Z,13.73
2022-11-06T12:35:52.048Z,13.75
2022-11-06T12:38:30.626Z,13.93
2022-11-06T12:41:03.376Z,14.01
2022-11-06T12:43:38.662Z,13.97
2022-11-06T12:46:28.130Z,13.98
2022-11-06T12:49:13.007Z,14.01
2022-11-06T12:51:51.365Z,14.11
2022-11-06T12:54:38.191Z,14.11
2022-11-06T12:57:17.683Z,14.07
2022-11-06T13:00:00.118Z,14.19
2022-11-06T13:02:43.232Z,14.23
2022-11-06T13:05:17.344Z,14.28
2022-11-06T13:08:11.491Z,14.29
2022-11-06T13:10:51.512Z,14.28
2022-11-06T13:13:35.803Z,14.34
2022-11-06T13:16:15.663Z,14.28
2022-11-06T13:18:53.220Z,14.33
2022-11-06T13:21:28.944Z,14.31
2022-11-06T13:24:02.396Z,14.31
2022-11-06T13:26:36.474Z,14.40
2022-11-06T13:29:07.232Z,14.40
2022-11-06T13:31:40.451Z,14.38
2022-11-06T13:34:18.507Z,14.38
2022-11-06T13:36:48.071Z,14.37
2022-11-06T13:39:24.717Z,14.41
2022-11-06T13:41:56.397Z,14.48
2022-11-06T13:44:25.919Z,14.41
2022-11-06T13:47:00.322Z,14.28
2022-11-06T13:49:36.545Z,14.21
2022-11-06T13:52:12.420Z,14.17
2022-11-06T13:54:55.013Z,14.26
2022-11-06T13:57:51.783Z,14.29
2022-11-06T14:00:23.037Z,14.24
2022-11-06T14:03:17.242Z,14.29
2022-11-06T14:05:54.279Z,13.68
2022-11-06T14:08:27.325Z,14.34
2022-11-06T14:11:00.541Z,14.45
2022-11-06T14:13:32.801Z,14.41
2022-11-06T14:16:08.466Z,14.59
2022-11-06T14:18:39.077Z,14.62
2022-11-06T14:21:44.713Z,14.60
2022-11-06T14:24:32.588Z,14.67
2022-11-06T14:27:02.841Z,14.60
2022-11-06T14:30:05.625Z,14.60
2022-11-06T14:32:45.545Z,14.78
2022-11-06T14:35:49.842Z,15.09
2022-11-06T14:38:45.338Z,15.27
2022-11-06T14:41:50.368Z,15.19
2022-11-06T14:44:35.466Z,15.08
2022-11-06T14:47:07.712Z,15.11
2022-11-06T14:49:40.818Z,15.09
2022-11-06T14:52:14.498Z,15.07
2022-11-06T14:54:53.810Z,15.08
2022-11-06T14:57:40.523Z,15.11
2022-11-06T15:00:14.360Z,15.00
2022-11-06T15:02:44.106Z,15.07
2022-11-06T15:05:19.839Z,15.00
2022-11-06T15:08:05.069Z,14.89
2022-11-06T15:10:54.398Z,14.93
2022-11-06T15:13:32.382Z,14.89
2022-11-06T15:16:12.165Z,14.93
2022-11-06T15:18:45.776Z,14.90
2022-11-06T15:21:25.998Z,14.87
2022-11-06T15:24:05.647Z,14.85
2022-11-06T15:26:40.966Z,14.93
2022-11-06T15:29:20.415Z,14.90
2022-11-06T15:31:52.251Z,14.92
2022-11-06T15:34:29.300Z,14.85
2022-11-06T15:37:09.993Z,14.78
2022-11-06T15:39:42.866Z,14.87
2022-11-06T15:42:17.785Z,14.78
2022-11-06T15:44:47.219Z,14.72
2022-11-06T15:47:22.485Z,14.90
2022-11-06T15:50:07.637Z,14.74
2022-11-06T15:52:36.006Z,14.70
2022-11-06T15:55:06.241Z,14.82
2022-11-06T15:57:36.259Z,14.88
2022-11-06T16:00:11.797Z,14.85
2022-11-06T16:02:52.350Z,14.82
2022-11-06T16:05:23.165Z,14.67
2022-11-06T16:07:52.764Z,14.84
2022-11-06T16:10:23.584Z,14.77
2022-11-06T16:12:55.003Z,14.77
2022-11-06T16:15:49.420Z,14.84
2022-11-06T16:18:22.808Z,14.72
2022-11-06T16:20:56.635Z,14.76
2022-11-06T16:23:36.108Z,14.33
2022-11-06T16:26:11.186Z,14.22
2022-11-06T16:28:44.787Z,14.30
2022-11-06T16:31:17.576Z,14.35
2022-11-06T16:33:56.512Z,14.37
2022-11-06T16:36:27.433Z,14.32
2022-11-06T16:38:56.566Z,14.34
2022-11-06T16:41:58.770Z,14.20
2022-11-06T16:44:31.670Z,13.69
2022-11-06T16:47:15.122Z,13.71
2022-11-06T16:49:48.929Z,13.51
2022-11-06T16:52:24.886Z,13.40
2022-11-06T16:54:56.264Z,13.35
2022-11-06T16:57:27.933Z,13.26
2022-11-06T17:00:03.471Z,13.24
2022-11-06T17:02:35.751Z,13.23
2022-11-06T17:05:17.064Z,13.20
2022-11-06T17:07:46.794Z,13.13
2022-11-06T17:10:39.180Z,13.18
2022-11-06T17:13:18.179Z,13.07
2022-11-06T17:15:49.847Z,13.12
2022-11-06T17:18:21.272Z,13.10
2022-11-06T17:20:53.177Z,13.00
2022-11-06T17:23:23.290Z,13.25
2022-11-06T17:25:54.545Z,13.11
2022-11-06T17:28:22.926Z,13.17
2022-11-06T17:30:52.605Z,13.23
2022-11-06T17:33:20.767Z,13.25
2022-11-06T17:35:50.202Z,13.27
2022-11-06T17:38:19.419Z,13.21
2022-11-06T17:40:47.788Z,13.35
2022-11-06T17:43:17.305Z,13.31
2022-11-06T17:45:48.253Z,13.26
2022-11-06T17:48:17.969Z,13.23
2022-11-06T17:51:03.897Z,13.09
2022-11-06T17:53:32.161Z,12.99
2022-11-06T17:56:06.790Z,12.79
2022-11-06T17:58:35.753Z,13.15
2022-11-06T18:01:09.613Z,13.18
2022-11-06T18:03:44.902Z,12.96
2022-11-06T18:06:14.634Z,13.05
2022-11-06T18:08:44.701Z,12.67
2022-11-06T18:11:16.796Z,12.92
2022-11-06T18:13:45.532Z,12.96
2022-11-06T18:16:19.369Z,12.80
2022-11-06T18:18:50.847Z,12.94
2022-11-06T18:21:20.446Z,12.90
2022-11-06T18:23:52.499Z,12.92
2022-11-06T18:26:22.772Z,12.91
2022-11-06T18:28:52.520Z,12.55
2022-11-06T18:31:22.212Z,12.57
2022-11-06T18:33:53.758Z,12.70
2022-11-06T18:36:24.413Z,12.75
2022-11-06T18:38:52.962Z,13.06
2022-11-06T18:41:24.508Z,12.85
2022-11-06T18:43:58.604Z,13.14
2022-11-06T18:46:29.953Z,13.09
2022-11-06T18:49:01.478Z,12.92
2022-11-06T18:51:35.604Z,13.01
2022-11-06T18:54:07.758Z,13.11
2022-11-06T18:56:39.047Z,13.06
2022-11-06T18:59:10.189Z,12.97
2022-11-06T19:01:40.369Z,12.83
2022-11-06T19:04:11.219Z,12.85
2022-11-06T19:06:40.446Z,12.79
2022-11-06T19:09:10.176Z,12.73
2022-11-06T19:11:38.333Z,12.75
2022-11-06T19:14:07.035Z,12.68
2022-11-06T19:16:35.272Z,12.59
2022-11-06T19:19:05.784Z,12.62
2022-11-06T19:21:36.536Z,12.60
2022-11-06T19:24:06.611Z,12.61
2022-11-06T19:26:36.115Z,12.60
2022-11-06T19:29:05.424Z,12.54
2022-11-06T19:31:33.960Z,12.53
2022-11-06T19:34:03.587Z,12.48
2022-11-06T19:36:33.028Z,12.49
2022-11-06T19:39:04.678Z,12.46
2022-11-06T19:41:33.299Z,12.49
2022-11-06T19:44:01.993Z,12.45
2022-11-06T19:46:35.709Z,12.51
2022-11-06T19:49:06.025Z,12.52
2022-11-06T19:51:34.657Z,12.24
2022-11-06T19:54:06.045Z,12.25
2022-11-06T19:56:34.356Z,12.19
2022-11-06T19:59:05.181Z,12.11
2022-11-06T20:01:34.862Z,12.00
2022-11-06T20:04:03.946Z,11.89
2022-11-06T20:06:32.322Z,11.74
2022-11-06T20:09:01.818Z,11.69
2022-11-06T20:11:31.408Z,11.26
2022-11-06T20:13:59.814Z,11.54
2022-11-06T20:16:28.837Z,11.67
2022-11-06T20:19:01.314Z,11.75
2022-11-06T20:21:30.377Z,11.62
2022-11-06T20:23:59.502Z,11.70
2022-11-06T20:26:28.583Z,11.76
2022-11-06T20:28:58.751Z,11.75
2022-11-06T20:31:27.288Z,11.68
2022-11-06T20:33:58.689Z,11.72
2022-11-06T20:36:30.124Z,11.76
2022-11-06T20:39:00.672Z,11.88
2022-11-06T20:41:30.675Z,11.93
2022-11-06T20:44:00.566Z,11.77
2022-11-06T20:46:28.904Z,12.03
2022-11-06T20:48:57.998Z,12.06
2022-11-06T20:51:29.603Z,11.80
2022-11-06T20:53:58.068Z,11.71
2022-11-06T20:56:26.656Z,11.91
2022-11-06T20:58:56.270Z,11.63
2022-11-06T21:01:27.275Z,11.49
2022-11-06T21:03:56.481Z,11.29
2022-11-06T21:06:26.793Z,11.71
2022-11-06T21:08:56.286Z,11.75
2022-11-06T21:11:26.484Z,11.75
2022-11-06T21:13:56.733Z,11.74
2022-11-06T21:16:28.483Z,11.79
2022-11-06T21:18:58.031Z,11.81
2022-11-06T21:21:31.356Z,11.81
2022-11-06T21:24:02.935Z,11.91
2022-11-06T21:26:33.239Z,12.03
2022-11-06T21:29:03.155Z,11.99
2022-11-06T21:31:33.981Z,12.09
2022-11-06T21:34:05.132Z,11.99
2022-11-06T21:36:38.139Z,11.93
2022-11-06T21:39:10.252Z,11.66
2022-11-06T21:41:38.875Z,11.91
2022-11-06T21:44:08.475Z,11.91
2022-11-06T21:46:45.037Z,11.88
2022-11-06T21:49:13.846Z,11.85
2022-11-06T21:51:43.035Z,11.62
2022-11-06T21:54:29.714Z,11.71
2022-11-06T21:56:58.297Z,11.65
2022-11-06T21:59:28.708Z,11.67
2022-11-06T22:01:59.092Z,11.57
2022-11-06T22:04:27.722Z,11.41
2022-11-06T22:06:55.821Z,11.38
2022-11-06T22:09:25.878Z,11.40
2022-11-06T22:11:54.478Z,11.32
2022-11-06T22:14:22.786Z,11.07
2022-11-06T22:16:51.380Z,10.62
2022-11-06T22:19:21.056Z,10.85
2022-11-06T22:21:50.898Z,10.81
2022-11-06T22:24:18.939Z,10.71
2022-11-06T22:26:47.333Z,10.70
2022-11-06T22:29:16.267Z,10.65
2022-11-06T22:31:44.375Z,10.32
2022-11-06T22:34:13.869Z,10.51
2022-11-06T22:36:43.846Z,10.55
2022-11-06T22:39:13.782Z,10.51
2022-11-06T22:41:42.077Z,10.49
2022-11-06T22:44:10.664Z,10.54
2022-11-06T22:46:38.988Z,10.49
2022-11-06T22:49:09.977Z,10.37
2022-11-06T22:51:38.097Z,10.52
2022-11-06T22:54:08.926Z,10.65
2022-11-06T22:56:37.321Z,10.53
2022-11-06T22:59:07.810Z,10.66
2022-11-06T23:01:41.950Z,10.67
2022-11-06T23:04:15.213Z,10.66
2022-11-06T23:06:44.472Z,10.63
2022-11-06T23:09:15.116Z,10.70
2022-11-06T23:11:46.643Z,10.76
2022-11-06T23:14:15.179Z,10.79
2022-11-06T23:17:01.783Z,10.86
2022-11-06T23:19:32.105Z,10.84
2022-11-06T23:22:18.031Z,10.89
2022-11-06T23:24:48.293Z,10.85
2022-11-06T23:27:16.829Z,10.88
2022-11-06T23:29:44.955Z,10.83
2022-11-06T23:32:13.415Z,10.77
2022-11-06T23:34:42.177Z,10.72
2022-11-06T23:37:10.374Z,10.74
2022-11-06T23:39:39.066Z,10.64
2022-11-06T23:42:08.595Z,10.56
2022-11-06T23:44:54.136Z,10.56
2022-11-06T23:47:22.611Z,10.63
2022-11-06T23:49:50.728Z,10.59
2022-11-06T23:52:19.460Z,10.50
2022-11-06T23:54:47.758Z,10.39
2022-11-06T23:57:21.745Z,10.48
2022-11-06T23:59:51.388Z,10.51
